createdAt,value
2018-06-27T00:02:04.926Z,3.07
2018-06-27T00:04:33.297Z,3.40
2018-06-27T00:07:01.616Z,3.60
2018-06-27T00:09:29.835Z,3.30
2018-06-27T00:11:58.124Z,2.80
2018-06-27T00:14:26.339Z,3.33
2018-06-27T00:16:54.598Z,3.37
2018-06-27T00:19:22.897Z,3.53
2018-06-27T00:21:51.375Z,3.33
2018-06-27T00:24:19.580Z,3.33
2018-06-27T00:26:47.827Z,3.50
2018-06-27T00:29:16.007Z,3.13
2018-06-27T00:31:44.544Z,3.37
2018-06-27T00:34:12.790Z,3.70
2018-06-27T00:36:41.458Z,3.90
2018-06-27T00:39:10.360Z,3.07
2018-06-27T00:41:38.928Z,6.30
2018-06-27T00:44:07.235Z,3.40
2018-06-27T00:46:35.895Z,3.10
2018-06-27T00:49:04.385Z,3.53
2018-06-27T00:51:32.884Z,3.63
2018-06-27T00:54:08.612Z,3.10
2018-06-27T00:56:40.069Z,3.93
2018-06-27T00:59:08.624Z,3.73
2018-06-27T01:01:37.365Z,3.60
2018-06-27T01:04:05.647Z,4.27
2018-06-27T01:06:33.897Z,3.50
2018-06-27T01:09:02.335Z,3.70
2018-06-27T01:11:31.569Z,3.67
2018-06-27T01:14:02.892Z,5.60
2018-06-27T01:16:31.099Z,4.07
2018-06-27T01:18:59.349Z,7.03
2018-06-27T01:21:27.571Z,5.83
2018-06-27T01:23:56.075Z,4.07
2018-06-27T01:26:24.326Z,5.43
2018-06-27T01:28:52.535Z,4.43
2018-06-27T01:31:21.026Z,4.17
2018-06-27T01:33:49.263Z,4.63
2018-06-27T01:36:17.770Z,4.10
2018-06-27T01:38:46.210Z,3.93
2018-06-27T01:41:14.439Z,3.70
2018-06-27T01:43:42.707Z,3.97
2018-06-27T01:46:11.005Z,3.50
2018-06-27T01:48:39.265Z,4.97
2018-06-27T01:51:07.760Z,3.70
2018-06-27T01:53:37.489Z,4.00
2018-06-27T01:56:06.915Z,3.70
2018-06-27T01:58:35.197Z,3.87
2018-06-27T02:01:03.380Z,4.27
2018-06-27T02:03:32.073Z,4.40
2018-06-27T02:06:00.360Z,5.47
2018-06-27T02:08:29.587Z,6.47
2018-06-27T02:10:58.333Z,4.93
2018-06-27T02:13:26.618Z,3.80
2018-06-27T02:15:54.829Z,3.70
2018-06-27T02:18:23.071Z,3.67
2018-06-27T02:20:51.334Z,4.77
2018-06-27T02:23:19.967Z,3.83
2018-06-27T02:25:48.247Z,4.27
2018-06-27T02:28:16.700Z,4.97
2018-06-27T02:30:44.989Z,4.20
2018-06-27T02:33:18.620Z,5.30
2018-06-27T02:35:46.832Z,4.27
2018-06-27T02:38:15.246Z,3.90
2018-06-27T02:40:43.590Z,4.47
2018-06-27T02:43:12.097Z,4.37
2018-06-27T02:45:40.332Z,4.37
2018-06-27T02:48:08.568Z,4.57
2018-06-27T02:50:36.774Z,4.43
2018-06-27T02:53:05.105Z,4.60
2018-06-27T02:55:33.405Z,5.00
2018-06-27T02:58:01.645Z,4.00
2018-06-27T03:00:29.874Z,4.40
2018-06-27T03:02:58.180Z,4.20
2018-06-27T03:05:26.467Z,5.27
2018-06-27T03:07:59.893Z,4.30
2018-06-27T03:10:28.151Z,4.70
2018-06-27T03:12:56.384Z,4.27
2018-06-27T03:15:25.938Z,4.43
2018-06-27T03:17:54.255Z,4.50
2018-06-27T03:20:22.504Z,4.03
2018-06-27T03:22:51.010Z,5.27
2018-06-27T03:25:19.232Z,4.07
2018-06-27T03:27:47.533Z,4.57
2018-06-27T03:30:16.240Z,6.00
2018-06-27T03:32:44.502Z,8.63
2018-06-27T03:35:13.023Z,4.60
2018-06-27T03:37:41.212Z,4.97
2018-06-27T03:40:09.931Z,5.40
2018-06-27T03:42:38.175Z,4.33
2018-06-27T03:45:06.432Z,4.37
2018-06-27T03:47:34.645Z,4.37
2018-06-27T03:50:02.851Z,4.47
2018-06-27T03:52:31.123Z,4.60
2018-06-27T03:55:00.019Z,4.03
2018-06-27T03:57:28.288Z,4.73
2018-06-27T03:59:56.502Z,4.33
2018-06-27T04:02:24.749Z,4.20
2018-06-27T04:04:52.983Z,4.90
2018-06-27T04:07:21.300Z,5.83
2018-06-27T04:09:49.535Z,4.27
2018-06-27T04:12:17.787Z,3.90
2018-06-27T04:14:46.015Z,4.70
2018-06-27T04:17:14.323Z,5.93
2018-06-27T04:19:42.566Z,5.03
2018-06-27T04:22:10.804Z,4.73
2018-06-27T04:24:39.037Z,6.67
2018-06-27T04:27:07.392Z,5.17
2018-06-27T04:29:35.623Z,7.70
2018-06-27T04:32:03.902Z,6.37
2018-06-27T04:34:32.159Z,5.50
2018-06-27T04:37:00.389Z,5.47
2018-06-27T04:39:28.628Z,6.23
2018-06-27T04:41:56.845Z,4.87
2018-06-27T04:44:25.103Z,4.83
2018-06-27T04:46:53.382Z,4.17
2018-06-27T04:49:21.639Z,4.20
2018-06-27T04:51:50.177Z,3.80
2018-06-27T04:54:18.392Z,4.10
2018-06-27T04:56:46.654Z,3.22
2018-06-27T04:59:14.874Z,3.20
2018-06-27T05:01:43.125Z,3.27
2018-06-27T05:04:11.364Z,3.45
2018-06-27T05:06:39.611Z,3.72
2018-06-27T05:09:09.658Z,4.00
2018-06-27T05:11:38.501Z,3.30
2018-06-27T05:14:07.272Z,3.75
2018-06-27T05:16:35.524Z,3.72
2018-06-27T05:19:03.736Z,3.22
2018-06-27T05:21:32.014Z,2.42
2018-06-27T05:24:00.252Z,3.10
2018-06-27T05:26:28.473Z,3.05
2018-06-27T05:28:57.751Z,2.72
2018-06-27T05:31:26.026Z,3.35
2018-06-27T05:33:54.575Z,3.40
2018-06-27T05:36:23.028Z,4.42
2018-06-27T05:38:51.676Z,2.65
2018-06-27T05:41:20.365Z,3.40
2018-06-27T05:43:48.740Z,3.27
2018-06-27T05:46:17.104Z,3.58
2018-06-27T05:48:45.546Z,3.52
2018-06-27T05:51:14.189Z,2.95
2018-06-27T05:53:42.713Z,3.85
2018-06-27T05:56:11.167Z,3.20
2018-06-27T05:58:39.428Z,3.80
2018-06-27T06:01:07.620Z,6.15
2018-06-27T06:03:35.994Z,3.83
2018-06-27T06:06:05.084Z,3.25
2018-06-27T06:08:34.447Z,3.80
2018-06-27T06:11:03.114Z,3.77
2018-06-27T06:13:31.411Z,3.45
2018-06-27T06:15:59.739Z,4.30
2018-06-27T06:18:28.012Z,4.42
2018-06-27T06:20:56.355Z,4.08
2018-06-27T06:23:24.772Z,3.90
2018-06-27T06:25:53.074Z,5.33
2018-06-27T06:28:21.499Z,4.45
2018-06-27T06:30:49.981Z,7.45
2018-06-27T06:33:18.584Z,5.33
2018-06-27T06:35:47.725Z,7.65
2018-06-27T06:38:15.993Z,3.83
2018-06-27T06:40:44.248Z,6.37
2018-06-27T06:43:12.583Z,4.62
2018-06-27T06:45:40.866Z,5.17
2018-06-27T06:48:09.122Z,6.65
2018-06-27T06:50:37.412Z,6.60
2018-06-27T06:53:05.676Z,4.83
2018-06-27T06:55:33.908Z,6.75
2018-06-27T06:58:02.679Z,3.77
2018-06-27T07:00:30.971Z,7.80
2018-06-27T07:02:59.422Z,5.45
2018-06-27T07:05:27.690Z,6.60
2018-06-27T07:07:55.947Z,5.03
2018-06-27T07:10:24.519Z,6.92
2018-06-27T07:12:52.807Z,7.00
2018-06-27T07:15:21.549Z,4.00
2018-06-27T07:17:49.836Z,6.58
2018-06-27T07:20:18.749Z,3.65
2018-06-27T07:22:46.963Z,4.80
2018-06-27T07:25:15.988Z,5.40
2018-06-27T07:27:44.789Z,6.35
2018-06-27T07:30:13.058Z,3.87
2018-06-27T07:32:41.816Z,4.95
2018-06-27T07:35:10.665Z,3.80
2018-06-27T07:37:39.006Z,6.53
2018-06-27T07:40:07.228Z,3.33
2018-06-27T07:42:35.843Z,4.10
2018-06-27T07:45:04.153Z,6.12
2018-06-27T07:47:32.395Z,7.87
2018-06-27T07:50:00.738Z,6.47
2018-06-27T07:52:28.928Z,3.72
2018-06-27T07:54:57.299Z,11.65
2018-06-27T07:57:25.619Z,9.53
2018-06-27T07:59:53.821Z,5.17
2018-06-27T08:02:22.035Z,3.75
2018-06-27T08:04:50.343Z,3.58
2018-06-27T08:07:18.566Z,3.45
2018-06-27T08:09:47.009Z,3.87
2018-06-27T08:12:15.268Z,3.30
2018-06-27T08:14:44.043Z,3.50
2018-06-27T08:17:12.279Z,4.47
2018-06-27T08:19:40.583Z,3.45
2018-06-27T08:22:08.807Z,2.62
2018-06-27T08:24:37.067Z,3.83
2018-06-27T08:27:05.391Z,4.75
2018-06-27T08:29:34.928Z,3.47
2018-06-27T08:32:03.171Z,3.08
2018-06-27T08:34:31.460Z,2.75
2018-06-27T08:36:59.724Z,3.02
2018-06-27T08:39:28.037Z,2.98
2018-06-27T08:41:56.325Z,3.98
2018-06-27T08:44:24.660Z,4.75
2018-06-27T08:46:52.911Z,3.80
2018-06-27T08:49:21.189Z,3.75
2018-06-27T08:51:49.515Z,5.15
2018-06-27T08:54:17.765Z,6.45
2018-06-27T08:56:46.065Z,2.77
2018-06-27T08:59:14.309Z,2.15
2018-06-27T09:01:42.580Z,5.65
2018-06-27T09:04:11.012Z,1.80
2018-06-27T09:06:39.014Z,2.12
2018-06-27T09:09:08.963Z,2.27
2018-06-27T09:11:37.308Z,2.37
2018-06-27T09:14:07.461Z,2.25
2018-06-27T09:16:35.772Z,1.42
2018-06-27T09:19:04.288Z,3.33
2018-06-27T09:21:32.579Z,1.42
2018-06-27T09:24:01.202Z,1.95
2018-06-27T09:26:29.548Z,1.50
2018-06-27T09:28:57.801Z,1.65
2018-06-27T09:31:26.018Z,3.35
2018-06-27T09:33:55.089Z,1.35
2018-06-27T09:36:23.431Z,1.22
2018-06-27T09:38:51.756Z,1.50
2018-06-27T09:41:20.081Z,1.80
2018-06-27T09:43:49.290Z,3.55
2018-06-27T09:46:17.650Z,1.42
2018-06-27T09:48:46.100Z,1.10
2018-06-27T09:51:14.445Z,2.33
2018-06-27T09:53:42.945Z,1.20
2018-06-27T09:56:11.177Z,2.80
2018-06-27T09:58:39.885Z,1.15
2018-06-27T10:01:08.160Z,3.47
2018-06-27T10:03:36.408Z,1.42
2018-06-27T10:06:04.652Z,3.60
2018-06-27T10:08:32.891Z,1.60
2018-06-27T10:11:01.100Z,2.75
2018-06-27T10:13:29.759Z,1.35
2018-06-27T10:15:58.458Z,1.22
2018-06-27T10:18:26.736Z,1.42
2018-06-27T10:20:55.441Z,1.10
2018-06-27T10:23:23.699Z,1.30
2018-06-27T10:25:51.883Z,1.27
2018-06-27T10:28:20.660Z,1.10
2018-06-27T10:30:49.302Z,1.10
2018-06-27T10:33:17.615Z,0.98
2018-06-27T10:35:45.939Z,0.98
2018-06-27T10:38:14.074Z,1.10
2018-06-27T10:40:42.916Z,1.35
2018-06-27T10:43:11.131Z,1.30
2018-06-27T10:45:39.386Z,1.30
2018-06-27T10:48:07.590Z,1.55
2018-06-27T10:50:35.832Z,1.02
2018-06-27T10:53:04.403Z,1.27
2018-06-27T10:55:32.623Z,1.37
2018-06-27T10:58:00.828Z,1.15
2018-06-27T11:00:29.011Z,2.65
2018-06-27T11:02:57.768Z,2.92
2018-06-27T11:05:26.086Z,1.50
2018-06-27T11:07:54.276Z,1.30
2018-06-27T11:10:23.127Z,1.77
2018-06-27T11:12:51.388Z,2.12
2018-06-27T11:15:20.185Z,1.82
2018-06-27T11:17:48.395Z,2.45
2018-06-27T11:20:16.646Z,1.40
2018-06-27T11:22:44.903Z,2.12
2018-06-27T11:25:13.577Z,4.12
2018-06-27T11:27:42.135Z,3.22
2018-06-27T11:30:10.815Z,1.92
2018-06-27T11:32:39.148Z,2.00
2018-06-27T11:35:07.370Z,1.62
2018-06-27T11:37:35.644Z,1.30
2018-06-27T11:40:04.119Z,1.47
2018-06-27T11:42:32.371Z,1.02
2018-06-27T11:45:00.606Z,2.85
2018-06-27T11:47:28.831Z,1.37
2018-06-27T11:49:57.404Z,1.00
2018-06-27T11:52:25.655Z,1.30
2018-06-27T11:54:59.203Z,1.52
2018-06-27T11:57:27.487Z,2.58
2018-06-27T11:59:55.843Z,1.00
2018-06-27T12:02:23.807Z,2.95
2018-06-27T12:04:52.109Z,1.15
2018-06-27T12:07:21.260Z,0.70
2018-06-27T12:09:49.511Z,1.85
2018-06-27T12:12:17.695Z,0.90
2018-06-27T12:14:45.943Z,0.98
2018-06-27T12:17:14.553Z,0.82
2018-06-27T12:19:42.835Z,1.72
2018-06-27T12:22:11.556Z,2.27
2018-06-27T12:24:41.435Z,1.65
2018-06-27T12:27:09.783Z,1.10
2018-06-27T12:29:37.989Z,1.42
2018-06-27T12:32:06.253Z,1.07
2018-06-27T12:34:34.479Z,1.42
2018-06-27T12:37:02.715Z,1.77
2018-06-27T12:39:31.583Z,1.10
2018-06-27T12:41:59.820Z,2.02
2018-06-27T12:44:28.881Z,2.20
2018-06-27T12:46:57.128Z,1.70
2018-06-27T12:49:25.359Z,3.95
2018-06-27T12:51:53.651Z,1.52
2018-06-27T12:54:22.132Z,1.20
2018-06-27T12:56:50.332Z,2.85
2018-06-27T12:59:18.582Z,4.60
2018-06-27T13:01:46.830Z,1.90
2018-06-27T13:04:15.119Z,1.80
2018-06-27T13:06:43.379Z,1.90
2018-06-27T13:09:11.909Z,2.02
2018-06-27T13:11:41.495Z,2.00
2018-06-27T13:14:09.741Z,2.30
2018-06-27T13:16:37.963Z,4.17
2018-06-27T13:19:07.756Z,2.15
2018-06-27T13:21:36.016Z,2.45
2018-06-27T13:24:04.332Z,2.65
2018-06-27T13:26:32.619Z,2.47
2018-06-27T13:29:01.419Z,3.58
2018-06-27T13:31:31.489Z,1.90
2018-06-27T13:33:59.743Z,2.52
2018-06-27T13:36:27.947Z,2.35
2018-06-27T13:38:56.236Z,2.10
2018-06-27T13:41:24.545Z,2.08
2018-06-27T13:43:52.888Z,2.37
2018-06-27T13:46:21.692Z,2.30
2018-06-27T13:48:49.936Z,1.90
2018-06-27T13:51:18.168Z,5.05
2018-06-27T13:53:46.510Z,3.52
2018-06-27T13:56:14.684Z,2.15
2018-06-27T13:58:42.943Z,2.20
2018-06-27T14:01:11.199Z,2.60
2018-06-27T14:03:39.476Z,2.08
2018-06-27T14:06:07.686Z,4.33
2018-06-27T14:08:36.020Z,1.70
2018-06-27T14:11:04.322Z,2.47
2018-06-27T14:13:32.519Z,1.87
2018-06-27T14:16:00.795Z,8.75
2018-06-27T14:18:29.005Z,2.62
2018-06-27T14:20:57.256Z,2.05
2018-06-27T14:23:25.520Z,2.17
2018-06-27T14:25:53.815Z,2.02
2018-06-27T14:28:23.457Z,2.27
2018-06-27T14:30:51.715Z,2.20
2018-06-27T14:33:19.968Z,2.17
2018-06-27T14:35:48.232Z,2.10
2018-06-27T14:38:16.463Z,2.40
2018-06-27T14:40:44.742Z,2.47
2018-06-27T14:43:13.016Z,1.92
2018-06-27T14:45:41.271Z,2.17
2018-06-27T14:48:09.512Z,2.20
2018-06-27T14:50:38.268Z,2.12
2018-06-27T14:53:06.517Z,2.05
2018-06-27T14:55:34.720Z,1.55
2018-06-27T14:58:03.331Z,1.70
2018-06-27T15:00:31.571Z,1.55
2018-06-27T15:02:59.816Z,1.87
2018-06-27T15:05:28.063Z,1.27
2018-06-27T15:07:56.299Z,1.20
2018-06-27T15:10:24.547Z,1.10
2018-06-27T15:12:52.747Z,4.53
2018-06-27T15:15:20.984Z,1.20
2018-06-27T15:17:49.273Z,3.70
2018-06-27T15:20:17.520Z,1.10
2018-06-27T15:22:47.693Z,0.93
2018-06-27T15:25:15.907Z,1.22
2018-06-27T15:27:44.200Z,4.90
2018-06-27T15:30:12.932Z,1.22
2018-06-27T15:32:41.176Z,2.00
2018-06-27T15:35:09.468Z,1.15
2018-06-27T15:37:37.710Z,1.15
2018-06-27T15:40:05.887Z,0.98
2018-06-27T15:42:34.104Z,2.08
2018-06-27T15:45:02.664Z,3.08
2018-06-27T15:47:30.909Z,0.90
2018-06-27T15:49:59.483Z,1.22
2018-06-27T15:52:27.687Z,1.02
2018-06-27T15:54:55.899Z,1.20
2018-06-27T15:57:24.209Z,1.65
2018-06-27T15:59:53.904Z,4.62
2018-06-27T16:02:22.720Z,1.35
2018-06-27T16:04:50.948Z,4.62
2018-06-27T16:07:19.905Z,2.83
2018-06-27T16:09:49.507Z,0.90
2018-06-27T16:12:17.971Z,1.20
2018-06-27T16:14:46.275Z,1.10
2018-06-27T16:17:14.619Z,0.95
2018-06-27T16:19:42.978Z,3.87
2018-06-27T16:22:11.399Z,0.93
2018-06-27T16:24:39.603Z,1.20
2018-06-27T16:27:07.867Z,1.75
2018-06-27T16:29:36.192Z,1.52
2018-06-27T16:32:04.410Z,1.20
2018-06-27T16:34:33.626Z,3.33
2018-06-27T16:37:01.860Z,2.85
2018-06-27T16:39:30.337Z,1.02
2018-06-27T16:41:58.631Z,1.20
2018-06-27T16:44:26.879Z,0.70
2018-06-27T16:46:55.308Z,0.85
2018-06-27T16:49:23.583Z,1.60
2018-06-27T16:51:51.822Z,0.90
2018-06-27T16:54:20.090Z,0.80
2018-06-27T16:56:48.364Z,1.02
2018-06-27T16:59:16.605Z,1.10
2018-06-27T17:01:45.081Z,1.47
2018-06-27T17:04:13.389Z,1.22
2018-06-27T17:06:41.894Z,1.37
2018-06-27T17:09:10.761Z,0.90
2018-06-27T17:11:39.564Z,1.05
2018-06-27T17:14:08.284Z,0.90
2018-06-27T17:16:36.541Z,2.50
2018-06-27T17:19:04.892Z,1.02
2018-06-27T17:21:33.112Z,1.67
2018-06-27T17:24:01.373Z,2.08
2018-06-27T17:26:29.627Z,2.05
2018-06-27T17:28:57.879Z,1.95
2018-06-27T17:31:26.175Z,0.70
2018-06-27T17:33:54.405Z,1.02
2018-06-27T17:36:22.710Z,0.72
2018-06-27T17:38:50.951Z,0.90
2018-06-27T17:41:19.423Z,0.93
2018-06-27T17:43:47.747Z,2.08
2018-06-27T17:46:16.596Z,1.10
2018-06-27T17:48:44.843Z,1.20
2018-06-27T17:51:13.090Z,1.10
2018-06-27T17:53:41.397Z,1.10
2018-06-27T17:56:09.347Z,1.60
2018-06-27T17:58:37.821Z,1.30
2018-06-27T18:01:06.128Z,3.87
2018-06-27T18:03:34.692Z,1.55
2018-06-27T18:06:02.950Z,3.37
2018-06-27T18:08:31.188Z,1.98
2018-06-27T18:11:00.068Z,3.22
2018-06-27T18:13:28.308Z,1.65
2018-06-27T18:15:56.585Z,1.75
2018-06-27T18:18:24.816Z,2.33
2018-06-27T18:20:53.065Z,1.82
2018-06-27T18:23:21.927Z,2.05
2018-06-27T18:25:50.156Z,1.95
2018-06-27T18:28:18.715Z,2.00
2018-06-27T18:30:47.371Z,1.70
2018-06-27T18:33:15.631Z,1.82
2018-06-27T18:35:44.800Z,2.33
2018-06-27T18:38:12.995Z,2.47
2018-06-27T18:40:42.887Z,2.67
2018-06-27T18:43:11.068Z,2.20
2018-06-27T18:45:39.312Z,2.12
2018-06-27T18:48:07.616Z,1.98
2018-06-27T18:50:35.947Z,2.20
2018-06-27T18:53:04.185Z,1.95
2018-06-27T18:55:32.415Z,2.17
2018-06-27T18:58:00.650Z,1.87
2018-06-27T19:00:29.814Z,1.95
2018-06-27T19:02:58.007Z,1.87
2018-06-27T19:05:26.239Z,1.92
2018-06-27T19:07:55.111Z,1.50
2018-06-27T19:10:23.328Z,2.55
2018-06-27T19:12:51.547Z,1.85
2018-06-27T19:15:20.281Z,1.87
2018-06-27T19:17:48.636Z,2.65
2018-06-27T19:20:17.601Z,1.92
2018-06-27T19:22:45.885Z,1.80
2018-06-27T19:25:14.488Z,2.40
2018-06-27T19:27:42.717Z,2.27
2018-06-27T19:30:11.027Z,1.75
2018-06-27T19:32:39.514Z,1.90
2018-06-27T19:35:08.507Z,1.85
2018-06-27T19:37:37.469Z,1.98
2018-06-27T19:40:05.521Z,2.85
2018-06-27T19:42:33.984Z,1.70
2018-06-27T19:45:02.243Z,2.10
2018-06-27T19:47:31.905Z,1.60
2018-06-27T19:50:00.157Z,4.33
2018-06-27T19:52:28.810Z,1.77
2018-06-27T19:54:57.808Z,1.67
2018-06-27T19:57:26.065Z,1.52
2018-06-27T19:59:54.297Z,1.70
2018-06-27T20:02:23.007Z,2.25
2018-06-27T20:04:51.243Z,1.87
2018-06-27T20:07:19.560Z,1.92
2018-06-27T20:09:47.800Z,2.05
2018-06-27T20:12:16.051Z,1.50
2018-06-27T20:14:44.386Z,1.75
2018-06-27T20:17:12.592Z,3.30
2018-06-27T20:19:40.816Z,2.33
2018-06-27T20:22:09.127Z,2.10
2018-06-27T20:24:37.399Z,1.62
2018-06-27T20:27:05.960Z,1.47
2018-06-27T20:29:34.206Z,1.57
2018-06-27T20:32:02.427Z,2.42
2018-06-27T20:34:30.658Z,1.77
2018-06-27T20:36:59.613Z,1.35
2018-06-27T20:39:28.056Z,1.57
2018-06-27T20:41:56.305Z,2.15
2018-06-27T20:44:24.584Z,1.52
2018-06-27T20:46:54.616Z,1.75
2018-06-27T20:49:23.688Z,1.45
2018-06-27T20:51:51.923Z,1.40
2018-06-27T20:54:20.127Z,1.47
2018-06-27T20:56:48.387Z,1.77
2018-06-27T20:59:16.827Z,1.42
2018-06-27T21:01:45.073Z,3.27
2018-06-27T21:04:13.355Z,1.75
2018-06-27T21:06:41.552Z,1.30
2018-06-27T21:09:10.711Z,1.60
2018-06-27T21:11:39.301Z,1.37
2018-06-27T21:14:07.573Z,1.60
2018-06-27T21:16:35.776Z,2.40
2018-06-27T21:19:04.026Z,1.72
2018-06-27T21:21:32.308Z,3.70
2018-06-27T21:24:00.651Z,1.25
2018-06-27T21:26:29.727Z,2.95
2018-06-27T21:28:57.689Z,1.52
2018-06-27T21:31:25.912Z,1.30
2018-06-27T21:33:54.153Z,1.50
2018-06-27T21:36:22.372Z,1.50
2018-06-27T21:38:51.503Z,1.87
2018-06-27T21:41:19.783Z,1.45
2018-06-27T21:43:47.762Z,1.40
2018-06-27T21:46:16.672Z,2.80
2018-06-27T21:48:45.376Z,2.00
2018-06-27T21:51:13.577Z,1.67
2018-06-27T21:53:41.928Z,1.52
2018-06-27T21:56:10.212Z,2.95
2018-06-27T21:58:38.492Z,1.32
2018-06-27T22:01:06.799Z,3.30
2018-06-27T22:03:35.032Z,1.67
2018-06-27T22:06:03.363Z,1.60
2018-06-27T22:08:31.579Z,1.57
2018-06-27T22:10:59.795Z,2.22
2018-06-27T22:13:28.071Z,1.37
2018-06-27T22:15:56.381Z,1.30
2018-06-27T22:18:24.307Z,2.15
2018-06-27T22:20:53.397Z,3.77
2018-06-27T22:23:21.932Z,2.97
2018-06-27T22:25:50.191Z,2.00
2018-06-27T22:28:18.427Z,2.60
2018-06-27T22:30:46.699Z,1.53
2018-06-27T22:33:16.788Z,2.90
2018-06-27T22:35:45.076Z,2.93
2018-06-27T22:38:13.313Z,2.80
2018-06-27T22:40:41.755Z,2.17
2018-06-27T22:43:10.025Z,1.30
2018-06-27T22:45:38.230Z,4.33
2018-06-27T22:48:06.475Z,1.80
2018-06-27T22:50:35.084Z,1.90
2018-06-27T22:53:03.340Z,2.30
2018-06-27T22:55:32.860Z,1.60
2018-06-27T22:58:01.533Z,2.00
2018-06-27T23:00:29.770Z,1.87
2018-06-27T23:02:57.976Z,1.70
2018-06-27T23:05:26.220Z,2.20
2018-06-27T23:07:54.845Z,2.03
2018-06-27T23:10:23.063Z,3.77
2018-06-27T23:12:52.796Z,1.87
2018-06-27T23:15:21.136Z,3.27
2018-06-27T23:17:49.939Z,4.40
2018-06-27T23:20:18.131Z,1.87
2018-06-27T23:22:48.252Z,1.90
2018-06-27T23:25:18.024Z,4.20
2018-06-27T23:27:46.767Z,1.60
2018-06-27T23:30:16.667Z,1.60
2018-06-27T23:32:44.887Z,3.50
2018-06-27T23:35:13.164Z,2.40
2018-06-27T23:37:41.519Z,1.37
2018-06-27T23:40:09.783Z,1.30
2018-06-27T23:42:38.072Z,1.60
2018-06-27T23:45:07.032Z,2.33
2018-06-27T23:47:35.507Z,1.20
2018-06-27T23:50:03.996Z,1.90
2018-06-27T23:52:32.232Z,1.57
2018-06-27T23:55:01.259Z,1.50
2018-06-27T23:57:30.066Z,1.47
2018-06-27T23:59:59.098Z,1.30
